sensor_id;sensor_type;location;lat;lon;timestamp;pressure;altitude;pressure_sealevel;temperature;humidity
65280;BME280;51878;55.748;48.742;2023-01-29T00:01:58;99519.19;;;-3.83;100.00
65280;BME280;51878;55.748;48.742;2023-01-29T00:04:25;99519.72;;;-3.78;100.00
65280;BME280;51878;55.748;48.742;2023-01-29T00:06:52;99452.66;;;-4.21;100.00
65280;BME280;51878;55.748;48.742;2023-01-29T00:09:19;99456.06;;;-4.19;100.00
65280;BME280;51878;55.748;48.742;2023-01-29T00:11:46;99393.13;;;-4.43;100.00
65280;BME280;51878;55.748;48.742;2023-01-29T00:14:13;99504.50;;;-3.74;100.00
65280;BME280;51878;55.748;48.742;2023-01-29T00:16:40;99468.56;;;-4.07;100.00
65280;BME280;51878;55.748;48.742;2023-01-29T00:19:07;99476.38;;;-4.34;100.00
65280;BME280;51878;55.748;48.742;2023-01-29T00:21:34;99489.53;;;-4.04;100.00
65280;BME280;51878;55.748;48.742;2023-01-29T00:24:02;99500.34;;;-3.92;100.00
65280;BME280;51878;55.748;48.742;2023-01-29T00:26:29;99375.72;;;-4.61;100.00
65280;BME280;51878;55.748;48.742;2023-01-29T00:28:56;99491.91;;;-3.99;100.00
65280;BME280;51878;55.748;48.742;2023-01-29T00:31:26;99477.34;;;-4.06;100.00
65280;BME280;51878;55.748;48.742;2023-01-29T00:33:53;99426.19;;;-4.36;100.00
65280;BME280;51878;55.748;48.742;2023-01-29T00:36:20;99480.75;;;-4.04;100.00
65280;BME280;51878;55.748;48.742;2023-01-29T00:38:56;99480.69;;;-4.03;100.00
65280;BME280;51878;55.748;48.742;2023-01-29T00:41:29;99422.59;;;-4.34;100.00
65280;BME280;51878;55.748;48.742;2023-01-29T00:44:15;99482.75;;;-3.93;100.00
65280;BME280;51878;55.748;48.742;2023-01-29T00:47:00;99470.19;;;-4.19;100.00
65280;BME280;51878;55.748;48.742;2023-01-29T00:49:27;99427.25;;;-4.24;100.00
65280;BME280;51878;55.748;48.742;2023-01-29T00:51:56;99464.13;;;-4.06;100.00
65280;BME280;51878;55.748;48.742;2023-01-29T00:54:41;99416.81;;;-4.41;100.00
65280;BME280;51878;55.748;48.742;2023-01-29T00:57:08;99445.00;;;-3.97;100.00
65280;BME280;51878;55.748;48.742;2023-01-29T00:59:35;99480.22;;;-3.81;100.00
65280;BME280;51878;55.748;48.742;2023-01-29T01:02:02;99377.81;;;-4.38;100.00
65280;BME280;51878;55.748;48.742;2023-01-29T01:04:48;99470.28;;;-3.91;100.00
65280;BME280;51878;55.748;48.742;2023-01-29T01:07:15;99429.41;;;-4.02;100.00
65280;BME280;51878;55.748;48.742;2023-01-29T01:09:42;99388.66;;;-4.28;100.00
65280;BME280;51878;55.748;48.742;2023-01-29T01:12:30;99444.78;;;-4.51;100.00
65280;BME280;51878;55.748;48.742;2023-01-29T01:14:57;99453.63;;;-4.22;100.00
65280;BME280;51878;55.748;48.742;2023-01-29T01:17:24;99378.06;;;-4.57;100.00
65280;BME280;51878;55.748;48.742;2023-01-29T01:19:51;99268.19;;;-5.20;100.00
65280;BME280;51878;55.748;48.742;2023-01-29T01:22:18;99296.91;;;-4.99;100.00
65280;BME280;51878;55.748;48.742;2023-01-29T01:24:45;99411.81;;;-4.46;100.00
65280;BME280;51878;55.748;48.742;2023-01-29T01:27:13;99423.50;;;-4.64;100.00
65280;BME280;51878;55.748;48.742;2023-01-29T01:29:40;99379.00;;;-4.72;100.00
65280;BME280;51878;55.748;48.742;2023-01-29T01:32:07;99427.41;;;-4.41;100.00
65280;BME280;51878;55.748;48.742;2023-01-29T01:34:34;99430.94;;;-4.12;100.00
65280;BME280;51878;55.748;48.742;2023-01-29T01:37:01;99313.44;;;-4.95;100.00
65280;BME280;51878;55.748;48.742;2023-01-29T01:39:28;99439.25;;;-4.04;100.00
65280;BME280;51878;55.748;48.742;2023-01-29T01:41:55;99401.25;;;-4.31;100.00
65280;BME280;51878;55.748;48.742;2023-01-29T01:47:21;99458.81;;;-4.06;100.00
65280;BME280;51878;55.748;48.742;2023-01-29T01:49:49;99456.66;;;-4.14;100.00
65280;BME280;51878;55.748;48.742;2023-01-29T01:52:17;99434.25;;;-4.08;100.00
65280;BME280;51878;55.748;48.742;2023-01-29T01:54:45;99434.16;;;-4.07;100.00
65280;BME280;51878;55.748;48.742;2023-01-29T01:57:18;99451.94;;;-3.95;100.00
65280;BME280;51878;55.748;48.742;2023-01-29T01:59:55;99367.50;;;-4.57;100.00
65280;BME280;51878;55.748;48.742;2023-01-29T02:02:25;99428.38;;;-4.13;100.00
65280;BME280;51878;55.748;48.742;2023-01-29T02:05:13;99419.69;;;-4.01;100.00
65280;BME280;51878;55.748;48.742;2023-01-29T02:07:59;99442.94;;;-3.92;100.00
65280;BME280;51878;55.748;48.742;2023-01-29T02:10:46;99392.38;;;-4.30;100.00
65280;BME280;51878;55.748;48.742;2023-01-29T02:13:15;99406.19;;;-4.25;100.00
65280;BME280;51878;55.748;48.742;2023-01-29T02:15:46;99420.81;;;-4.20;100.00
65280;BME280;51878;55.748;48.742;2023-01-29T02:18:16;99380.06;;;-4.46;100.00
65280;BME280;51878;55.748;48.742;2023-01-29T02:21:03;99421.59;;;-4.32;100.00
65280;BME280;51878;55.748;48.742;2023-01-29T02:23:50;99277.25;;;-5.09;100.00
65280;BME280;51878;55.748;48.742;2023-01-29T02:29:15;99443.50;;;-4.16;100.00
65280;BME280;51878;55.748;48.742;2023-01-29T02:31:56;99422.41;;;-4.17;100.00
65280;BME280;51878;55.748;48.742;2023-01-29T02:37:25;99321.56;;;-4.70;100.00
65280;BME280;51878;55.748;48.742;2023-01-29T02:48:40;99409.09;;;-4.16;100.00
65280;BME280;51878;55.748;48.742;2023-01-29T02:51:16;99430.19;;;-4.00;100.00
65280;BME280;51878;55.748;48.742;2023-01-29T02:53:56;99412.13;;;-4.07;100.00
65280;BME280;51878;55.748;48.742;2023-01-29T02:56:38;99344.16;;;-4.50;100.00
65280;BME280;51878;55.748;48.742;2023-01-29T02:59:15;99418.47;;;-4.10;100.00
65280;BME280;51878;55.748;48.742;2023-01-29T03:02:11;99426.31;;;-3.94;100.00
65280;BME280;51878;55.748;48.742;2023-01-29T03:04:42;99315.75;;;-4.61;100.00
65280;BME280;51878;55.748;48.742;2023-01-29T03:07:19;99412.31;;;-3.96;100.00
65280;BME280;51878;55.748;48.742;2023-01-29T03:10:39;99420.91;;;-3.92;100.00
65280;BME280;51878;55.748;48.742;2023-01-29T03:13:14;99415.44;;;-3.89;100.00
65280;BME280;51878;55.748;48.742;2023-01-29T03:15:47;99412.78;;;-4.04;100.00
65280;BME280;51878;55.748;48.742;2023-01-29T03:18:20;99358.63;;;-4.27;100.00
65280;BME280;51878;55.748;48.742;2023-01-29T03:20:54;99386.97;;;-4.00;100.00
65280;BME280;51878;55.748;48.742;2023-01-29T03:23:27;99353.13;;;-4.24;100.00
65280;BME280;51878;55.748;48.742;2023-01-29T03:26:15;99404.94;;;-4.05;100.00
65280;BME280;51878;55.748;48.742;2023-01-29T03:29:02;99406.19;;;-3.97;100.00
65280;BME280;51878;55.748;48.742;2023-01-29T03:31:49;99355.53;;;-4.33;100.00
65280;BME280;51878;55.748;48.742;2023-01-29T03:34:34;99370.63;;;-4.21;100.00
65280;BME280;51878;55.748;48.742;2023-01-29T03:37:12;99388.69;;;-4.13;100.00
65280;BME280;51878;55.748;48.742;2023-01-29T03:39:42;99383.28;;;-4.26;100.00
65280;BME280;51878;55.748;48.742;2023-01-29T03:47:35;99407.00;;;-4.10;100.00
65280;BME280;51878;55.748;48.742;2023-01-29T03:50:40;99323.88;;;-4.49;100.00
65280;BME280;51878;55.748;48.742;2023-01-29T03:53:43;99274.38;;;-4.90;100.00
65280;BME280;51878;55.748;48.742;2023-01-29T04:01:59;99379.22;;;-4.03;100.00
65280;BME280;51878;55.748;48.742;2023-01-29T04:04:32;99337.47;;;-4.41;100.00
65280;BME280;51878;55.748;48.742;2023-01-29T04:07:06;99356.44;;;-4.34;100.00
65280;BME280;51878;55.748;48.742;2023-01-29T04:09:57;99302.91;;;-4.67;100.00
65280;BME280;51878;55.748;48.742;2023-01-29T04:12:28;99345.59;;;-4.44;100.00
65280;BME280;51878;55.748;48.742;2023-01-29T04:14:58;99377.16;;;-4.27;100.00
65280;BME280;51878;55.748;48.742;2023-01-29T04:17:37;99337.19;;;-4.51;100.00
65280;BME280;51878;55.748;48.742;2023-01-29T04:20:06;99375.91;;;-4.21;100.00
65280;BME280;51878;55.748;48.742;2023-01-29T04:22:38;99289.78;;;-4.83;100.00
65280;BME280;51878;55.748;48.742;2023-01-29T04:25:16;99356.00;;;-4.27;100.00
65280;BME280;51878;55.748;48.742;2023-01-29T04:30:53;99305.53;;;-4.52;100.00
65280;BME280;51878;55.748;48.742;2023-01-29T04:36:35;99360.50;;;-4.15;100.00
65280;BME280;51878;55.748;48.742;2023-01-29T04:42:11;99324.69;;;-4.34;100.00
65280;BME280;51878;55.748;48.742;2023-01-29T04:50:43;99247.16;;;-4.92;100.00
65280;BME280;51878;55.748;48.742;2023-01-29T04:53:24;99364.09;;;-4.16;100.00
65280;BME280;51878;55.748;48.742;2023-01-29T04:56:07;99355.69;;;-4.37;100.00
65280;BME280;51878;55.748;48.742;2023-01-29T04:58:37;99322.06;;;-4.49;100.00
65280;BME280;51878;55.748;48.742;2023-01-29T05:01:09;99208.91;;;-5.44;100.00
65280;BME280;51878;55.748;48.742;2023-01-29T05:03:39;99353.91;;;-4.50;100.00
65280;BME280;51878;55.748;48.742;2023-01-29T05:06:09;99363.38;;;-4.32;100.00
65280;BME280;51878;55.748;48.742;2023-01-29T05:08:38;99336.63;;;-4.42;100.00
65280;BME280;51878;55.748;48.742;2023-01-29T05:11:05;99341.31;;;-4.32;100.00
65280;BME280;51878;55.748;48.742;2023-01-29T05:13:36;99343.34;;;-4.36;100.00
65280;BME280;51878;55.748;48.742;2023-01-29T05:16:15;99355.78;;;-4.24;100.00
65280;BME280;51878;55.748;48.742;2023-01-29T05:18:45;99330.09;;;-4.36;100.00
65280;BME280;51878;55.748;48.742;2023-01-29T05:21:12;99290.03;;;-4.59;100.00
65280;BME280;51878;55.748;48.742;2023-01-29T05:23:39;99346.16;;;-4.25;100.00
65280;BME280;51878;55.748;48.742;2023-01-29T05:26:19;99364.38;;;-4.34;100.00
65280;BME280;51878;55.748;48.742;2023-01-29T05:29:05;99334.72;;;-4.40;100.00
65280;BME280;51878;55.748;48.742;2023-01-29T05:31:32;99349.44;;;-4.21;100.00
65280;BME280;51878;55.748;48.742;2023-01-29T05:33:59;99357.78;;;-4.27;100.00
65280;BME280;51878;55.748;48.742;2023-01-29T05:36:26;99344.91;;;-4.48;100.00
65280;BME280;51878;55.748;48.742;2023-01-29T05:38:54;99253.41;;;-4.93;100.00
65280;BME280;51878;55.748;48.742;2023-01-29T05:41:21;99249.06;;;-4.94;100.00
65280;BME280;51878;55.748;48.742;2023-01-29T05:43:48;99315.84;;;-4.62;100.00
65280;BME280;51878;55.748;48.742;2023-01-29T05:46:15;99290.69;;;-4.84;100.00
65280;BME280;51878;55.748;48.742;2023-01-29T05:48:42;99292.66;;;-4.87;100.00
65280;BME280;51878;55.748;48.742;2023-01-29T05:51:09;99344.91;;;-4.48;100.00
65280;BME280;51878;55.748;48.742;2023-01-29T05:53:36;99322.66;;;-4.58;100.00
65280;BME280;51878;55.748;48.742;2023-01-29T05:56:03;99331.69;;;-4.48;100.00
65280;BME280;51878;55.748;48.742;2023-01-29T05:58:32;99292.31;;;-4.67;100.00
65280;BME280;51878;55.748;48.742;2023-01-29T06:01:11;99235.38;;;-5.15;100.00
65280;BME280;51878;55.748;48.742;2023-01-29T06:03:38;99325.66;;;-4.64;100.00
65280;BME280;51878;55.748;48.742;2023-01-29T06:06:05;99274.72;;;-4.96;100.00
65280;BME280;51878;55.748;48.742;2023-01-29T06:08:32;99312.25;;;-4.75;100.00
65280;BME280;51878;55.748;48.742;2023-01-29T06:10:59;99248.09;;;-5.08;100.00
65280;BME280;51878;55.748;48.742;2023-01-29T06:13:27;99306.00;;;-4.74;100.00
65280;BME280;51878;55.748;48.742;2023-01-29T06:15:54;99266.78;;;-5.11;100.00
65280;BME280;51878;55.748;48.742;2023-01-29T06:18:21;99291.75;;;-4.86;100.00
65280;BME280;51878;55.748;48.742;2023-01-29T06:20:48;99308.16;;;-4.81;100.00
65280;BME280;51878;55.748;48.742;2023-01-29T06:23:15;99301.47;;;-4.72;100.00
65280;BME280;51878;55.748;48.742;2023-01-29T06:25:42;99317.44;;;-4.74;100.00
65280;BME280;51878;55.748;48.742;2023-01-29T06:28:09;99285.50;;;-5.00;100.00
65280;BME280;51878;55.748;48.742;2023-01-29T06:30:36;99304.59;;;-4.80;100.00
65280;BME280;51878;55.748;48.742;2023-01-29T06:33:03;99168.56;;;-5.76;100.00
65280;BME280;51878;55.748;48.742;2023-01-29T06:35:30;99303.84;;;-4.82;100.00
65280;BME280;51878;55.748;48.742;2023-01-29T06:37:57;99302.44;;;-4.73;100.00
65280;BME280;51878;55.748;48.742;2023-01-29T06:40:24;99213.84;;;-5.24;100.00
65280;BME280;51878;55.748;48.742;2023-01-29T06:42:51;99263.78;;;-5.05;100.00
65280;BME280;51878;55.748;48.742;2023-01-29T06:45:19;99291.72;;;-4.72;100.00
65280;BME280;51878;55.748;48.742;2023-01-29T06:47:46;99254.34;;;-4.80;100.00
65280;BME280;51878;55.748;48.742;2023-01-29T06:50:13;99285.25;;;-4.52;100.00
65280;BME280;51878;55.748;48.742;2023-01-29T06:52:40;99299.78;;;-4.45;100.00
65280;BME280;51878;55.748;48.742;2023-01-29T06:55:08;99282.28;;;-4.33;100.00
65280;BME280;51878;55.748;48.742;2023-01-29T06:57:35;99282.66;;;-4.25;100.00
65280;BME280;51878;55.748;48.742;2023-01-29T07:00:03;99252.00;;;-4.56;100.00
65280;BME280;51878;55.748;48.742;2023-01-29T07:02:30;99279.00;;;-4.51;100.00
65280;BME280;51878;55.748;48.742;2023-01-29T07:04:57;99233.31;;;-4.67;100.00
65280;BME280;51878;55.748;48.742;2023-01-29T07:07:24;99288.44;;;-4.47;100.00
65280;BME280;51878;55.748;48.742;2023-01-29T07:09:51;99274.25;;;-4.74;100.00
65280;BME280;51878;55.748;48.742;2023-01-29T07:12:18;99281.16;;;-4.58;100.00
65280;BME280;51878;55.748;48.742;2023-01-29T07:14:45;99261.06;;;-4.60;100.00
65280;BME280;51878;55.748;48.742;2023-01-29T07:17:12;99266.13;;;-4.57;100.00
65280;BME280;51878;55.748;48.742;2023-01-29T07:19:39;99249.88;;;-4.65;100.00
65280;BME280;51878;55.748;48.742;2023-01-29T07:22:06;99276.41;;;-4.24;100.00
65280;BME280;51878;55.748;48.742;2023-01-29T07:24:33;99273.75;;;-4.24;100.00
65280;BME280;51878;55.748;48.742;2023-01-29T07:27:00;99238.66;;;-4.83;100.00
65280;BME280;51878;55.748;48.742;2023-01-29T07:29:27;99272.06;;;-4.25;100.00
65280;BME280;51878;55.748;48.742;2023-01-29T07:31:54;99252.78;;;-4.27;100.00
65280;BME280;51878;55.748;48.742;2023-01-29T07:34:21;99259.00;;;-4.28;100.00
65280;BME280;51878;55.748;48.742;2023-01-29T07:36:52;99231.09;;;-4.46;100.00
65280;BME280;51878;55.748;48.742;2023-01-29T07:39:19;99187.09;;;-4.62;100.00
65280;BME280;51878;55.748;48.742;2023-01-29T07:41:46;99232.59;;;-4.15;100.00
65280;BME280;51878;55.748;48.742;2023-01-29T07:44:13;99222.59;;;-4.10;100.00
65280;BME280;51878;55.748;48.742;2023-01-29T07:46:40;99100.34;;;-4.84;100.00
65280;BME280;51878;55.748;48.742;2023-01-29T07:49:07;99158.66;;;-4.58;100.00
65280;BME280;51878;55.748;48.742;2023-01-29T07:51:34;99242.25;;;-3.87;100.00
65280;BME280;51878;55.748;48.742;2023-01-29T07:54:01;99242.25;;;-3.87;100.00
65280;BME280;51878;55.748;48.742;2023-01-29T07:56:28;99207.56;;;-4.09;100.00
65280;BME280;51878;55.748;48.742;2023-01-29T07:58:55;99192.88;;;-4.01;100.00
65280;BME280;51878;55.748;48.742;2023-01-29T08:01:23;99226.50;;;-3.76;100.00
65280;BME280;51878;55.748;48.742;2023-01-29T08:03:53;99221.44;;;-3.79;100.00
65280;BME280;51878;55.748;48.742;2023-01-29T08:06:20;99226.03;;;-3.95;100.00
65280;BME280;51878;55.748;48.742;2023-01-29T08:08:50;99232.66;;;-3.75;100.00
65280;BME280;51878;55.748;48.742;2023-01-29T08:11:18;99239.81;;;-3.90;100.00
65280;BME280;51878;55.748;48.742;2023-01-29T08:13:45;99231.38;;;-2.65;100.00
65280;BME280;51878;55.748;48.742;2023-01-29T13:45:19;98895.72;;;0.32;44.06
65280;BME280;51878;55.748;48.742;2023-01-29T13:47:50;98952.72;;;-2.88;54.17
65280;BME280;51878;55.748;48.742;2023-01-29T13:50:47;99033.91;;;-3.86;60.10
65280;BME280;51878;55.748;48.742;2023-01-29T13:53:28;99004.22;;;-5.37;66.62
65280;BME280;51878;55.748;48.742;2023-01-29T13:59:02;98943.78;;;-7.15;74.59
65280;BME280;51878;55.748;48.742;2023-01-29T14:04:26;99008.94;;;-7.35;79.79
65280;BME280;51878;55.748;48.742;2023-01-29T14:06:56;99022.69;;;-7.61;81.50
65280;BME280;51878;55.748;48.742;2023-01-29T14:12:26;99003.41;;;-8.11;85.40
65280;BME280;51878;55.748;48.742;2023-01-29T14:17:25;98993.59;;;-8.41;88.25
65280;BME280;51878;55.748;48.742;2023-01-29T14:20:15;98739.19;;;-10.01;89.50
65280;BME280;51878;55.748;48.742;2023-01-29T14:22:43;98965.72;;;-8.78;90.43
65280;BME280;51878;55.748;48.742;2023-01-29T14:25:21;99013.78;;;-8.59;91.66
65280;BME280;51878;55.748;48.742;2023-01-29T14:27:53;99020.63;;;-8.56;92.05
65280;BME280;51878;55.748;48.742;2023-01-29T14:30:23;98982.16;;;-8.75;92.35
65280;BME280;51878;55.748;48.742;2023-01-29T14:32:58;98979.66;;;-8.95;93.33
65280;BME280;51878;55.748;48.742;2023-01-29T14:35:36;98967.16;;;-9.07;93.66
65280;BME280;51878;55.748;48.742;2023-01-29T14:38:05;98972.97;;;-9.01;94.12
65280;BME280;51878;55.748;48.742;2023-01-29T14:40:35;98961.44;;;-9.16;94.85
65280;BME280;51878;55.748;48.742;2023-01-29T14:43:16;99005.03;;;-8.94;95.19
65280;BME280;51878;55.748;48.742;2023-01-29T14:45:47;98942.41;;;-9.38;95.97
65280;BME280;51878;55.748;48.742;2023-01-29T14:48:36;98997.88;;;-9.09;96.34
65280;BME280;51878;55.748;48.742;2023-01-29T14:51:08;98888.06;;;-9.90;97.63
65280;BME280;51878;55.748;48.742;2023-01-29T14:54:41;98841.56;;;-10.23;98.14
65280;BME280;51878;55.748;48.742;2023-01-29T14:57:07;98996.84;;;-9.24;98.78
65280;BME280;51878;55.748;48.742;2023-01-29T15:00:03;98903.59;;;-9.85;99.87
65280;BME280;51878;55.748;48.742;2023-01-29T15:02:42;98976.59;;;-9.40;100.00
65280;BME280;51878;55.748;48.742;2023-01-29T15:05:34;98956.44;;;-9.57;100.00
65280;BME280;51878;55.748;48.742;2023-01-29T15:08:26;98967.00;;;-9.58;100.00
65280;BME280;51878;55.748;48.742;2023-01-29T15:10:58;98961.75;;;-9.58;100.00
65280;BME280;51878;55.748;48.742;2023-01-29T15:13:54;98754.47;;;-11.02;100.00
65280;BME280;51878;55.748;48.742;2023-01-29T15:17:01;98986.25;;;-9.59;100.00
65280;BME280;51878;55.748;48.742;2023-01-29T15:19:40;98986.13;;;-9.56;100.00
65280;BME280;51878;55.748;48.742;2023-01-29T15:22:19;98967.56;;;-9.70;100.00
65280;BME280;51878;55.748;48.742;2023-01-29T15:25:11;98964.81;;;-9.86;100.00
65280;BME280;51878;55.748;48.742;2023-01-29T15:27:43;98976.28;;;-9.70;100.00
65280;BME280;51878;55.748;48.742;2023-01-29T15:30:28;98957.66;;;-9.83;100.00
65280;BME280;51878;55.748;48.742;2023-01-29T15:32:56;98941.25;;;-9.88;100.00
65280;BME280;51878;55.748;48.742;2023-01-29T15:35:37;98903.38;;;-10.19;100.00
65280;BME280;51878;55.748;48.742;2023-01-29T15:38:18;98978.97;;;-9.71;100.00
65280;BME280;51878;55.748;48.742;2023-01-29T15:41:12;98885.13;;;-10.39;100.00
65280;BME280;51878;55.748;48.742;2023-01-29T15:43:46;98892.31;;;-10.25;100.00
65280;BME280;51878;55.748;48.742;2023-01-29T15:46:26;98873.75;;;-10.38;100.00
65280;BME280;51878;55.748;48.742;2023-01-29T15:48:58;98973.09;;;-9.77;100.00
65280;BME280;51878;55.748;48.742;2023-01-29T15:51:26;98958.56;;;-9.84;100.00
65280;BME280;51878;55.748;48.742;2023-01-29T15:54:03;98934.41;;;-10.09;100.00
65280;BME280;51878;55.748;48.742;2023-01-29T15:56:44;98950.34;;;-9.95;100.00
65280;BME280;51878;55.748;48.742;2023-01-29T15:59:22;98891.09;;;-10.35;100.00
65280;BME280;51878;55.748;48.742;2023-01-29T16:01:52;98969.63;;;-9.96;100.00
65280;BME280;51878;55.748;48.742;2023-01-29T16:04:26;98953.66;;;-10.10;100.00
65280;BME280;51878;55.748;48.742;2023-01-29T16:06:59;98955.06;;;-10.03;100.00
65280;BME280;51878;55.748;48.742;2023-01-29T16:09:34;98953.09;;;-10.17;100.00
65280;BME280;51878;55.748;48.742;2023-01-29T16:12:04;98980.59;;;-10.07;100.00
65280;BME280;51878;55.748;48.742;2023-01-29T16:14:34;98770.44;;;-11.29;100.00
65280;BME280;51878;55.748;48.742;2023-01-29T16:17:22;98951.81;;;-10.08;100.00
65280;BME280;51878;55.748;48.742;2023-01-29T16:19:58;98958.84;;;-10.09;100.00
65280;BME280;51878;55.748;48.742;2023-01-29T16:22:30;98940.84;;;-10.16;100.00
65280;BME280;51878;55.748;48.742;2023-01-29T16:25:11;98943.75;;;-10.23;100.00
65280;BME280;51878;55.748;48.742;2023-01-29T16:27:42;98959.47;;;-10.23;100.00
65280;BME280;51878;55.748;48.742;2023-01-29T16:32:48;98927.56;;;-10.31;100.00
65280;BME280;51878;55.748;48.742;2023-01-29T16:35:22;98953.72;;;-10.12;100.00
65280;BME280;51878;55.748;48.742;2023-01-29T16:37:49;98926.00;;;-10.35;100.00
65280;BME280;51878;55.748;48.742;2023-01-29T16:40:29;98938.38;;;-10.38;100.00
65280;BME280;51878;55.748;48.742;2023-01-29T16:46:14;98733.22;;;-11.54;100.00
65280;BME280;51878;55.748;48.742;2023-01-29T16:48:46;98766.94;;;-11.28;100.00
65280;BME280;51878;55.748;48.742;2023-01-29T16:51:37;98948.34;;;-10.28;100.00
65280;BME280;51878;55.748;48.742;2023-01-29T16:54:11;98835.66;;;-10.85;100.00
65280;BME280;51878;55.748;48.742;2023-01-29T16:56:44;98915.88;;;-10.43;100.00
65280;BME280;51878;55.748;48.742;2023-01-29T16:59:25;98920.75;;;-10.35;100.00
65280;BME280;51878;55.748;48.742;2023-01-29T17:01:55;98924.41;;;-10.39;100.00
65280;BME280;51878;55.748;48.742;2023-01-29T17:04:22;98837.13;;;-10.77;100.00
65280;BME280;51878;55.748;48.742;2023-01-29T17:06:55;98879.47;;;-10.49;100.00
65280;BME280;51878;55.748;48.742;2023-01-29T17:09:27;98924.75;;;-10.28;100.00
65280;BME280;51878;55.748;48.742;2023-01-29T17:11:57;98814.25;;;-10.93;100.00
65280;BME280;51878;55.748;48.742;2023-01-29T17:14:29;98768.50;;;-11.24;100.00
65280;BME280;51878;55.748;48.742;2023-01-29T17:17:05;98912.22;;;-10.21;100.00
65280;BME280;51878;55.748;48.742;2023-01-29T17:19:32;98687.84;;;-11.53;100.00
65280;BME280;51878;55.748;48.742;2023-01-29T17:22:02;98847.75;;;-10.62;100.00
65280;BME280;51878;55.748;48.742;2023-01-29T17:24:33;98912.63;;;-10.29;100.00
65280;BME280;51878;55.748;48.742;2023-01-29T17:27:00;98839.84;;;-10.60;100.00
65280;BME280;51878;55.748;48.742;2023-01-29T17:29:29;98805.03;;;-10.83;100.00
65280;BME280;51878;55.748;48.742;2023-01-29T17:31:57;98864.88;;;-10.54;100.00
65280;BME280;51878;55.748;48.742;2023-01-29T17:34:25;98802.22;;;-10.97;100.00
65280;BME280;51878;55.748;48.742;2023-01-29T17:36:52;98892.09;;;-10.38;100.00
65280;BME280;51878;55.748;48.742;2023-01-29T17:39:21;98897.19;;;-10.35;100.00
65280;BME280;51878;55.748;48.742;2023-01-29T17:41:51;98690.06;;;-11.83;100.00
65280;BME280;51878;55.748;48.742;2023-01-29T17:44:18;98862.03;;;-10.69;100.00
65280;BME280;51878;55.748;48.742;2023-01-29T17:46:46;98884.50;;;-10.44;100.00
65280;BME280;51878;55.748;48.742;2023-01-29T17:49:26;98662.88;;;-11.79;100.00
65280;BME280;51878;55.748;48.742;2023-01-29T17:51:55;98851.63;;;-10.70;100.00
65280;BME280;51878;55.748;48.742;2023-01-29T17:54:23;98732.25;;;-11.52;100.00
65280;BME280;51878;55.748;48.742;2023-01-29T17:56:52;98880.38;;;-10.50;100.00
65280;BME280;51878;55.748;48.742;2023-01-29T17:59:22;98873.28;;;-10.67;100.00
65280;BME280;51878;55.748;48.742;2023-01-29T18:01:50;98869.03;;;-10.69;100.00
65280;BME280;51878;55.748;48.742;2023-01-29T18:04:19;98858.75;;;-10.74;100.00
65280;BME280;51878;55.748;48.742;2023-01-29T18:06:50;98870.09;;;-10.73;100.00
65280;BME280;51878;55.748;48.742;2023-01-29T18:09:19;98787.91;;;-11.29;100.00
65280;BME280;51878;55.748;48.742;2023-01-29T18:11:48;98874.88;;;-10.83;100.00
65280;BME280;51878;55.748;48.742;2023-01-29T18:14:15;98808.53;;;-11.21;100.00
65280;BME280;51878;55.748;48.742;2023-01-29T18:16:43;98905.81;;;-10.72;100.00
65280;BME280;51878;55.748;48.742;2023-01-29T18:19:28;98822.66;;;-11.26;100.00
65280;BME280;51878;55.748;48.742;2023-01-29T18:21:57;98816.22;;;-11.18;100.00
65280;BME280;51878;55.748;48.742;2023-01-29T18:24:24;98813.56;;;-11.17;100.00
65280;BME280;51878;55.748;48.742;2023-01-29T18:26:53;98895.28;;;-10.71;100.00
65280;BME280;51878;55.748;48.742;2023-01-29T18:29:21;98876.72;;;-10.85;100.00
65280;BME280;51878;55.748;48.742;2023-01-29T18:31:51;98736.91;;;-11.58;100.00
65280;BME280;51878;55.748;48.742;2023-01-29T18:34:18;98684.34;;;-11.92;100.00
65280;BME280;51878;55.748;48.742;2023-01-29T18:36:45;98735.78;;;-11.53;100.00
65280;BME280;51878;55.748;48.742;2023-01-29T18:39:16;98878.66;;;-10.70;100.00
65280;BME280;51878;55.748;48.742;2023-01-29T18:41:54;98845.66;;;-10.93;100.00
65280;BME280;51878;55.748;48.742;2023-01-29T18:44:21;98864.88;;;-10.73;100.00
65280;BME280;51878;55.748;48.742;2023-01-29T18:46:49;98836.56;;;-11.05;100.00
65280;BME280;51878;55.748;48.742;2023-01-29T18:49:16;98858.75;;;-10.93;100.00
65280;BME280;51878;55.748;48.742;2023-01-29T18:51:43;98834.47;;;-10.96;100.00
65280;BME280;51878;55.748;48.742;2023-01-29T18:54:14;98846.22;;;-11.07;100.00
65280;BME280;51878;55.748;48.742;2023-01-29T18:56:43;98837.69;;;-11.10;100.00
65280;BME280;51878;55.748;48.742;2023-01-29T18:59:29;98798.63;;;-11.35;100.00
65280;BME280;51878;55.748;48.742;2023-01-29T19:01:56;98769.94;;;-11.57;100.00
65280;BME280;51878;55.748;48.742;2023-01-29T19:04:23;98854.03;;;-11.05;100.00
65280;BME280;51878;55.748;48.742;2023-01-29T19:06:50;98846.38;;;-11.10;100.00
65280;BME280;51878;55.748;48.742;2023-01-29T19:09:17;98837.22;;;-11.20;100.00
65280;BME280;51878;55.748;48.742;2023-01-29T19:11:45;98770.81;;;-11.57;100.00
65280;BME280;51878;55.748;48.742;2023-01-29T19:14:12;98853.50;;;-11.13;100.00
65280;BME280;51878;55.748;48.742;2023-01-29T19:16:39;98773.63;;;-11.61;100.00
65280;BME280;51878;55.748;48.742;2023-01-29T19:19:06;98860.59;;;-11.15;100.00
65280;BME280;51878;55.748;48.742;2023-01-29T19:21:34;98841.66;;;-11.22;100.00
65280;BME280;51878;55.748;48.742;2023-01-29T19:24:05;98856.13;;;-11.13;100.00
65280;BME280;51878;55.748;48.742;2023-01-29T19:26:35;98839.84;;;-11.20;100.00
65280;BME280;51878;55.748;48.742;2023-01-29T19:29:02;98771.34;;;-11.69;100.00
65280;BME280;51878;55.748;48.742;2023-01-29T19:31:29;98847.09;;;-11.27;100.00
65280;BME280;51878;55.748;48.742;2023-01-29T19:33:57;98834.22;;;-11.31;100.00
65280;BME280;51878;55.748;48.742;2023-01-29T19:36:27;98769.50;;;-11.67;100.00